createdAt,value
2023-04-10T00:01:20.756Z,40.90
2023-04-10T00:03:48.640Z,40.86
2023-04-10T00:06:16.906Z,40.95
2023-04-10T00:08:44.304Z,40.81
2023-04-10T00:11:14.534Z,40.66
2023-04-10T00:13:42.856Z,40.62
2023-04-10T00:16:11.294Z,40.53
2023-04-10T00:18:38.933Z,40.38
2023-04-10T00:21:07.294Z,40.41
2023-04-10T00:23:37.401Z,40.38
2023-04-10T00:26:05.392Z,40.41
2023-04-10T00:28:32.934Z,40.43
2023-04-10T00:31:00.475Z,40.26
2023-04-10T00:33:27.787Z,40.24
2023-04-10T00:35:55.934Z,40.22
2023-04-10T00:38:23.647Z,40.18
2023-04-10T00:40:51.885Z,40.15
2023-04-10T00:43:20.634Z,40.26
2023-04-10T00:45:50.796Z,40.24
2023-04-10T00:48:19.392Z,40.15
2023-04-10T00:50:47.200Z,40.23
2023-04-10T00:53:16.132Z,40.17
2023-04-10T00:55:44.531Z,40.09
2023-04-10T00:58:14.808Z,40.00
2023-04-10T01:00:42.413Z,40.14
2023-04-10T01:03:12.081Z,40.13
2023-04-10T01:05:44.546Z,39.98
2023-04-10T01:08:18.835Z,40.11
2023-04-10T01:10:46.834Z,39.98
2023-04-10T01:13:23.505Z,40.02
2023-04-10T01:16:00.307Z,40.10
2023-04-10T01:18:36.828Z,40.14
2023-04-10T01:21:08.446Z,40.14
2023-04-10T01:23:51.991Z,40.23
2023-04-10T01:26:48.057Z,40.25
2023-04-10T01:29:20.888Z,40.03
2023-04-10T01:31:58.709Z,40.05
2023-04-10T01:34:30.552Z,40.12
2023-04-10T01:37:02.669Z,40.09
2023-04-10T01:39:30.968Z,40.18
2023-04-10T01:42:01.364Z,40.17
2023-04-10T01:44:41.151Z,40.14
2023-04-10T01:47:09.126Z,40.18
2023-04-10T01:49:42.935Z,39.98
2023-04-10T01:52:11.993Z,39.98
2023-04-10T01:54:40.870Z,39.95
2023-04-10T01:57:08.594Z,40.04
2023-04-10T01:59:52.173Z,40.06
2023-04-10T02:02:19.934Z,39.96
2023-04-10T02:04:51.975Z,40.12
2023-04-10T02:07:19.567Z,40.09
2023-04-10T02:09:47.382Z,40.18
2023-04-10T02:12:27.159Z,40.15
2023-04-10T02:15:00.153Z,40.13
2023-04-10T02:17:32.848Z,40.29
2023-04-10T02:20:00.966Z,40.15
2023-04-10T02:22:29.000Z,40.24
2023-04-10T02:24:57.571Z,40.17
2023-04-10T02:27:33.654Z,40.27
2023-04-10T02:30:02.624Z,40.26
2023-04-10T02:32:34.205Z,40.44
2023-04-10T02:35:04.641Z,40.54
2023-04-10T02:37:33.665Z,40.73
2023-04-10T02:40:04.145Z,40.81
2023-04-10T02:42:41.329Z,40.81
2023-04-10T02:45:11.691Z,40.91
2023-04-10T02:47:43.035Z,40.74
2023-04-10T02:50:12.343Z,40.76
2023-04-10T02:52:43.464Z,40.92
2023-04-10T02:55:11.740Z,40.84
2023-04-10T02:57:42.897Z,40.92
2023-04-10T03:00:11.174Z,41.17
2023-04-10T03:07:42.997Z,41.27
2023-04-10T03:10:30.113Z,41.21
2023-04-10T03:13:07.900Z,41.13
2023-04-10T03:15:45.776Z,41.16
2023-04-10T03:18:13.316Z,40.96
2023-04-10T03:20:44.894Z,41.08
2023-04-10T03:23:14.520Z,41.05
2023-04-10T03:25:42.252Z,40.88
2023-04-10T03:28:09.962Z,40.97
2023-04-10T03:30:37.936Z,40.89
2023-04-10T03:33:05.631Z,40.85
2023-04-10T03:35:33.199Z,40.85
2023-04-10T03:38:01.009Z,40.91
2023-04-10T03:40:54.124Z,40.78
2023-04-10T03:44:00.634Z,40.84
2023-04-10T03:51:15.042Z,40.72
2023-04-10T03:54:15.359Z,40.75
2023-04-10T03:57:08.517Z,40.81
2023-04-10T04:00:23.135Z,40.80
2023-04-10T04:15:56.197Z,40.07
2023-04-10T04:18:46.719Z,40.07
2023-04-10T04:21:33.062Z,39.92
2023-04-10T04:24:08.435Z,39.81
2023-04-10T04:27:11.782Z,39.68
2023-04-10T04:29:51.706Z,39.57
2023-04-10T04:32:25.369Z,39.55
2023-04-10T04:35:17.285Z,39.27
2023-04-10T04:38:17.275Z,39.05
2023-04-10T04:41:31.370Z,39.08
2023-04-10T04:44:27.401Z,38.92
2023-04-10T04:47:03.732Z,38.86
2023-04-10T04:50:00.424Z,38.78
2023-04-10T04:52:48.089Z,38.81
2023-04-10T04:55:27.694Z,38.64
2023-04-10T04:58:04.212Z,38.63
2023-04-10T05:00:47.074Z,38.80
2023-04-10T05:03:44.297Z,38.78
2023-04-10T05:06:37.443Z,39.12
2023-04-10T05:09:31.500Z,39.10
2023-04-10T05:12:09.256Z,39.27
2023-04-10T05:14:42.697Z,39.33
2023-04-10T05:17:31.276Z,39.24
2023-04-10T05:20:17.803Z,39.33
2023-04-10T05:23:03.617Z,39.27
2023-04-10T05:25:50.811Z,39.22
2023-04-10T05:28:22.991Z,39.04
2023-04-10T05:31:25.869Z,38.84
2023-04-10T05:34:16.473Z,38.79
2023-04-10T05:36:58.300Z,38.93
2023-04-10T05:39:45.797Z,38.78
2023-04-10T05:42:33.813Z,38.33
2023-04-10T05:45:30.519Z,38.10
2023-04-10T05:48:19.687Z,37.75
2023-04-10T05:51:02.428Z,37.45
2023-04-10T05:53:43.137Z,37.25
2023-04-10T05:56:42.471Z,37.33
2023-04-10T05:59:39.567Z,37.52
2023-04-10T06:02:46.246Z,37.41
2023-04-10T06:05:22.616Z,37.23
2023-04-10T06:08:04.191Z,36.94
2023-04-10T06:10:31.997Z,36.77
2023-04-10T06:12:59.778Z,36.56
2023-04-10T06:15:27.860Z,36.40
2023-04-10T06:17:56.190Z,36.32
2023-04-10T06:20:24.055Z,36.27
2023-04-10T06:22:51.877Z,36.50
2023-04-10T06:25:19.364Z,36.77
2023-04-10T06:27:46.856Z,36.90
2023-04-10T06:30:14.771Z,36.62
2023-04-10T06:32:42.561Z,36.66
2023-04-10T06:35:11.570Z,36.73
2023-04-10T06:37:41.647Z,36.63
2023-04-10T06:40:12.226Z,36.34
2023-04-10T06:42:39.692Z,36.56
2023-04-10T06:45:13.515Z,36.52
2023-04-10T06:47:41.112Z,36.65
2023-04-10T06:50:08.783Z,36.52
2023-04-10T06:52:36.191Z,36.14
2023-04-10T06:55:04.242Z,36.07
2023-04-10T06:57:32.106Z,35.95
2023-04-10T06:59:59.677Z,35.87
2023-04-10T15:42:05.644Z,37.53
2023-04-10T15:44:33.834Z,38.24
2023-04-10T15:47:01.907Z,38.75
2023-04-10T15:49:37.908Z,39.20
2023-04-10T15:52:13.271Z,39.42
2023-04-10T15:54:49.821Z,39.63
2023-04-10T15:57:20.832Z,39.68
2023-04-10T15:59:51.334Z,39.77
2023-04-10T16:02:19.170Z,40.05
2023-04-10T16:04:46.921Z,40.06
2023-04-10T16:07:14.431Z,40.09
2023-04-10T16:09:41.754Z,40.23
2023-04-10T16:12:09.055Z,40.38
2023-04-10T16:14:36.572Z,40.53
2023-04-10T16:17:03.848Z,40.51
2023-04-10T16:19:32.009Z,40.86
2023-04-10T16:21:59.476Z,41.00
2023-04-10T16:24:27.043Z,41.08
2023-04-10T16:26:54.790Z,41.29
2023-04-10T16:29:22.185Z,41.48
2023-04-10T16:31:49.560Z,41.75
2023-04-10T16:34:16.883Z,41.88
2023-04-10T16:36:45.026Z,42.07
2023-04-10T16:39:12.660Z,42.16
2023-04-10T16:41:40.030Z,42.48
2023-04-10T16:44:08.131Z,42.38
2023-04-10T16:46:36.322Z,42.76
2023-04-10T16:49:04.484Z,42.58
2023-04-10T16:51:32.002Z,42.86
2023-04-10T16:53:59.446Z,42.84
2023-04-10T16:56:27.197Z,42.75
2023-04-10T16:58:57.490Z,42.87
2023-04-10T17:01:25.854Z,42.85
2023-04-10T17:03:54.307Z,42.61
2023-04-10T17:06:22.302Z,42.70
2023-04-10T17:08:53.454Z,42.55
2023-04-10T17:11:21.240Z,42.46
2023-04-10T17:13:51.460Z,42.33
2023-04-10T17:16:20.295Z,42.28
2023-04-10T17:18:48.161Z,42.27
2023-04-10T17:21:18.524Z,42.24
2023-04-10T17:23:46.038Z,42.38
2023-04-10T17:26:14.274Z,42.37
2023-04-10T17:28:44.598Z,42.38
2023-04-10T17:31:15.678Z,42.54
2023-04-10T17:33:43.925Z,42.66
2023-04-10T17:36:12.489Z,42.81
2023-04-10T17:38:40.404Z,42.70
2023-04-10T17:41:08.331Z,42.63
2023-04-10T17:43:36.202Z,42.80
2023-04-10T17:46:03.496Z,42.74
2023-04-10T17:48:31.854Z,42.72
2023-04-10T17:51:01.594Z,42.88
2023-04-10T17:53:29.454Z,43.07
2023-04-10T17:55:57.140Z,43.08
2023-04-10T17:58:25.948Z,43.05
2023-04-10T18:01:01.743Z,43.00
2023-04-10T18:03:29.223Z,42.98
2023-04-10T18:05:56.826Z,43.03
2023-04-10T18:08:24.484Z,43.04
2023-04-10T18:10:51.838Z,43.00
2023-04-10T18:13:19.673Z,43.19
2023-04-10T18:15:47.223Z,42.97
2023-04-10T18:18:14.809Z,43.21
2023-04-10T18:20:42.093Z,43.16
2023-04-10T18:23:09.820Z,43.35
2023-04-10T18:25:40.515Z,43.33
2023-04-10T18:30:39.664Z,43.35
2023-04-10T18:33:10.759Z,43.39
2023-04-10T18:35:39.822Z,43.38
2023-04-10T18:38:07.245Z,43.34
2023-04-10T18:40:37.044Z,43.42
2023-04-10T18:43:05.546Z,43.38
2023-04-10T18:45:34.714Z,43.29
2023-04-10T18:48:02.965Z,43.20
2023-04-10T18:50:30.820Z,43.20
2023-04-10T18:52:58.128Z,43.18
2023-04-10T18:55:25.687Z,43.04
2023-04-10T18:57:53.058Z,43.15
2023-04-10T19:00:20.340Z,43.21
2023-04-10T19:02:47.691Z,43.22
2023-04-10T19:05:16.717Z,43.29
2023-04-10T19:07:56.606Z,43.30
2023-04-10T19:10:31.798Z,43.42
2023-04-10T19:12:59.000Z,43.40
2023-04-10T19:15:26.692Z,43.35
2023-04-10T19:17:54.880Z,43.46
2023-04-10T19:20:49.105Z,43.47
2023-04-10T19:23:09.941Z,43.55
2023-04-10T19:25:37.400Z,43.58
2023-04-10T19:28:05.081Z,43.58
2023-04-10T19:30:32.759Z,43.88
2023-04-10T19:33:00.262Z,43.73
2023-04-10T19:35:27.731Z,43.65
2023-04-10T19:37:58.273Z,43.60
2023-04-10T19:40:26.124Z,43.73
2023-04-10T19:42:53.556Z,43.63
2023-04-10T19:45:22.357Z,43.65
2023-04-10T19:47:52.993Z,43.67
2023-04-10T19:50:20.373Z,43.54
2023-04-10T19:52:47.949Z,43.48
2023-04-10T19:55:17.010Z,43.39
2023-04-10T19:57:47.104Z,43.29
2023-04-10T20:00:14.653Z,43.46
2023-04-10T20:02:42.320Z,43.48
2023-04-10T20:05:10.034Z,43.36
2023-04-10T20:07:37.542Z,43.45
2023-04-10T20:10:05.289Z,43.46
2023-04-10T20:12:33.284Z,43.55
2023-04-10T20:15:01.510Z,43.40
2023-04-10T20:17:30.381Z,43.54
2023-04-10T20:19:57.759Z,43.52
2023-04-10T20:22:25.532Z,43.33
2023-04-10T20:24:53.134Z,43.39
2023-04-10T20:27:20.439Z,43.40
2023-04-10T20:29:47.844Z,43.25
2023-04-10T20:32:15.722Z,43.35
2023-04-10T20:34:43.074Z,43.28
2023-04-10T20:37:10.584Z,43.46
2023-04-10T20:39:38.383Z,43.55
2023-04-10T20:42:06.354Z,43.52
2023-04-10T20:44:36.122Z,43.47
2023-04-10T20:47:04.650Z,43.56
2023-04-10T20:49:32.278Z,43.59
2023-04-10T20:52:00.242Z,43.73
2023-04-10T20:54:28.085Z,43.63
2023-04-10T20:56:57.028Z,43.68
2023-04-10T20:59:24.389Z,43.71
2023-04-10T21:01:51.935Z,43.58
2023-04-10T21:04:20.235Z,43.72
2023-04-10T21:06:47.790Z,43.87
2023-04-10T21:09:15.337Z,43.58
2023-04-10T21:11:42.786Z,43.57
2023-04-10T21:14:10.616Z,43.66
2023-04-10T21:16:41.374Z,43.60
2023-04-10T21:19:09.454Z,43.43
2023-04-10T21:21:36.847Z,43.62
2023-04-10T21:24:04.643Z,43.49
2023-04-10T21:26:32.158Z,43.58
2023-04-10T21:28:59.568Z,43.55
2023-04-10T21:31:27.042Z,43.54
2023-04-10T21:33:57.532Z,43.61
2023-04-10T21:36:25.067Z,43.44
2023-04-10T21:38:52.852Z,43.56
2023-04-10T21:41:21.164Z,43.59
2023-04-10T21:43:48.333Z,43.52
2023-04-10T21:46:16.186Z,43.49
2023-04-10T21:48:43.645Z,43.65
2023-04-10T21:51:11.248Z,43.78
2023-04-10T21:53:38.449Z,43.87
2023-04-10T21:56:06.037Z,43.88
2023-04-10T21:58:33.816Z,44.05
2023-04-10T22:01:01.468Z,44.18
2023-04-10T22:03:29.089Z,44.33
2023-04-10T22:05:56.494Z,44.17
2023-04-10T22:08:24.009Z,44.43
2023-04-10T22:10:52.393Z,44.40
2023-04-10T22:13:30.219Z,44.50
2023-04-10T22:16:00.343Z,44.32
2023-04-10T22:18:28.048Z,44.35
2023-04-10T22:20:55.822Z,44.34
2023-04-10T22:23:23.925Z,44.44
2023-04-10T22:25:51.181Z,44.29
2023-04-10T22:28:18.380Z,44.34
2023-04-10T22:30:46.163Z,44.40
2023-04-10T22:33:13.574Z,44.24
2023-04-10T22:35:42.609Z,44.30
2023-04-10T22:38:10.036Z,44.27
2023-04-10T22:40:37.469Z,44.44
2023-04-10T22:43:04.860Z,44.46
2023-04-10T22:45:32.065Z,44.57
2023-04-10T22:47:59.406Z,44.63
2023-04-10T22:50:26.888Z,44.67
2023-04-10T22:52:54.084Z,44.57
2023-04-10T22:55:21.494Z,44.77
2023-04-10T22:57:50.771Z,44.80
2023-04-10T23:00:22.691Z,44.75
2023-04-10T23:02:50.571Z,44.87
2023-04-10T23:05:17.999Z,44.89
2023-04-10T23:07:45.479Z,44.83
2023-04-10T23:10:12.680Z,44.92
2023-04-10T23:12:40.334Z,44.82
2023-04-10T23:15:07.816Z,44.92
2023-04-10T23:17:35.212Z,44.90
2023-04-10T23:20:02.573Z,44.95
2023-04-10T23:22:30.641Z,44.94
2023-04-10T23:24:58.080Z,44.90
2023-04-10T23:27:25.511Z,44.92
2023-04-10T23:29:53.323Z,44.82
2023-04-10T23:32:20.691Z,44.88
2023-04-10T23:34:48.106Z,44.89
2023-04-10T23:37:15.412Z,44.94
2023-04-10T23:39:42.951Z,45.02
2023-04-10T23:42:10.418Z,45.13
2023-04-10T23:44:37.827Z,45.07
2023-04-10T23:47:06.576Z,45.24
2023-04-10T23:49:35.398Z,45.33
2023-04-10T23:52:02.673Z,45.38
2023-04-10T23:54:29.914Z,45.36
2023-04-10T23:56:57.804Z,45.38
2023-04-10T23:59:25.228Z,45.38
